sensor_id;sensor_type;location;lat;lon;timestamp;P1;durP1;ratioP1;P2;durP2;ratioP2
30299;SDS011;17110;52.602;12.998;2023-12-20T00:01:46;6.68;;;5.15;;
30299;SDS011;17110;52.602;12.998;2023-12-20T00:06:47;4.65;;;4.20;;
30299;SDS011;17110;52.602;12.998;2023-12-20T00:11:48;4.50;;;3.72;;
30299;SDS011;17110;52.602;12.998;2023-12-20T00:16:49;6.45;;;5.07;;
30299;SDS011;17110;52.602;12.998;2023-12-20T00:21:50;5.85;;;5.00;;
30299;SDS011;17110;52.602;12.998;2023-12-20T00:26:52;7.43;;;4.82;;
30299;SDS011;17110;52.602;12.998;2023-12-20T00:31:52;7.47;;;5.80;;
30299;SDS011;17110;52.602;12.998;2023-12-20T00:36:53;7.32;;;5.00;;
30299;SDS011;17110;52.602;12.998;2023-12-20T00:41:55;7.30;;;5.50;;
30299;SDS011;17110;52.602;12.998;2023-12-20T00:46:56;6.90;;;5.55;;
30299;SDS011;17110;52.602;12.998;2023-12-20T00:51:57;7.13;;;5.22;;
30299;SDS011;17110;52.602;12.998;2023-12-20T00:56:59;7.90;;;5.05;;
30299;SDS011;17110;52.602;12.998;2023-12-20T01:02:00;5.82;;;4.47;;
30299;SDS011;17110;52.602;12.998;2023-12-20T01:07:00;4.85;;;4.15;;
30299;SDS011;17110;52.602;12.998;2023-12-20T01:12:02;6.07;;;4.88;;
30299;SDS011;17110;52.602;12.998;2023-12-20T01:17:03;5.10;;;4.15;;
30299;SDS011;17110;52.602;12.998;2023-12-20T01:22:04;5.35;;;3.72;;
30299;SDS011;17110;52.602;12.998;2023-12-20T01:27:06;2.95;;;2.65;;
30299;SDS011;17110;52.602;12.998;2023-12-20T01:32:07;2.80;;;2.22;;
30299;SDS011;17110;52.602;12.998;2023-12-20T01:37:07;5.80;;;2.80;;
30299;SDS011;17110;52.602;12.998;2023-12-20T01:42:09;4.93;;;1.90;;
30299;SDS011;17110;52.602;12.998;2023-12-20T01:47:10;3.00;;;1.50;;
30299;SDS011;17110;52.602;12.998;2023-12-20T01:52:11;3.28;;;1.88;;
30299;SDS011;17110;52.602;12.998;2023-12-20T01:57:14;1.77;;;1.67;;
30299;SDS011;17110;52.602;12.998;2023-12-20T02:02:15;2.67;;;1.73;;
30299;SDS011;17110;52.602;12.998;2023-12-20T02:07:15;3.97;;;1.58;;
30299;SDS011;17110;52.602;12.998;2023-12-20T02:12:19;2.00;;;1.58;;
30299;SDS011;17110;52.602;12.998;2023-12-20T02:17:20;1.20;;;1.10;;
30299;SDS011;17110;52.602;12.998;2023-12-20T02:22:23;1.58;;;1.30;;
30299;SDS011;17110;52.602;12.998;2023-12-20T02:27:23;1.65;;;1.52;;
30299;SDS011;17110;52.602;12.998;2023-12-20T02:32:25;2.17;;;1.98;;
30299;SDS011;17110;52.602;12.998;2023-12-20T02:37:27;4.05;;;2.20;;
30299;SDS011;17110;52.602;12.998;2023-12-20T02:42:27;1.88;;;1.70;;
30299;SDS011;17110;52.602;12.998;2023-12-20T02:47:28;3.35;;;2.40;;
30299;SDS011;17110;52.602;12.998;2023-12-20T02:52:30;2.15;;;1.95;;
30299;SDS011;17110;52.602;12.998;2023-12-20T02:57:31;5.13;;;2.25;;
30299;SDS011;17110;52.602;12.998;2023-12-20T03:02:31;2.63;;;2.15;;
30299;SDS011;17110;52.602;12.998;2023-12-20T03:07:33;7.07;;;2.00;;
30299;SDS011;17110;52.602;12.998;2023-12-20T03:12:34;3.42;;;2.25;;
30299;SDS011;17110;52.602;12.998;2023-12-20T03:17:34;4.63;;;2.05;;
30299;SDS011;17110;52.602;12.998;2023-12-20T03:22:36;5.22;;;1.90;;
30299;SDS011;17110;52.602;12.998;2023-12-20T03:27:37;2.47;;;2.03;;
30299;SDS011;17110;52.602;12.998;2023-12-20T03:32:38;2.63;;;2.22;;
30299;SDS011;17110;52.602;12.998;2023-12-20T03:37:40;3.75;;;2.55;;
30299;SDS011;17110;52.602;12.998;2023-12-20T03:42:40;3.22;;;2.03;;
30299;SDS011;17110;52.602;12.998;2023-12-20T03:47:41;3.60;;;2.42;;
30299;SDS011;17110;52.602;12.998;2023-12-20T03:52:43;2.65;;;1.92;;
30299;SDS011;17110;52.602;12.998;2023-12-20T03:57:44;5.35;;;2.05;;
30299;SDS011;17110;52.602;12.998;2023-12-20T04:02:44;2.72;;;1.52;;
30299;SDS011;17110;52.602;12.998;2023-12-20T04:07:46;3.50;;;1.60;;
30299;SDS011;17110;52.602;12.998;2023-12-20T04:12:47;4.03;;;1.70;;
30299;SDS011;17110;52.602;12.998;2023-12-20T04:17:48;4.88;;;1.85;;
30299;SDS011;17110;52.602;12.998;2023-12-20T04:22:50;6.47;;;1.77;;
30299;SDS011;17110;52.602;12.998;2023-12-20T04:27:50;5.00;;;2.17;;
30299;SDS011;17110;52.602;12.998;2023-12-20T04:32:51;6.75;;;1.92;;
30299;SDS011;17110;52.602;12.998;2023-12-20T04:37:53;5.80;;;1.90;;
30299;SDS011;17110;52.602;12.998;2023-12-20T04:42:53;11.05;;;2.20;;
30299;SDS011;17110;52.602;12.998;2023-12-20T04:47:54;4.30;;;2.05;;
30299;SDS011;17110;52.602;12.998;2023-12-20T04:52:56;3.85;;;1.63;;
30299;SDS011;17110;52.602;12.998;2023-12-20T04:57:57;4.55;;;1.80;;
30299;SDS011;17110;52.602;12.998;2023-12-20T05:02:58;3.50;;;1.42;;
30299;SDS011;17110;52.602;12.998;2023-12-20T05:08:00;5.60;;;1.52;;
30299;SDS011;17110;52.602;12.998;2023-12-20T05:13:00;2.72;;;1.70;;
30299;SDS011;17110;52.602;12.998;2023-12-20T05:18:01;8.43;;;2.53;;
30299;SDS011;17110;52.602;12.998;2023-12-20T05:23:03;2.30;;;1.52;;
30299;SDS011;17110;52.602;12.998;2023-12-20T05:28:04;7.53;;;1.92;;
30299;SDS011;17110;52.602;12.998;2023-12-20T05:33:05;2.75;;;1.77;;
30299;SDS011;17110;52.602;12.998;2023-12-20T05:38:07;4.70;;;1.60;;
30299;SDS011;17110;52.602;12.998;2023-12-20T05:43:07;2.63;;;1.65;;
30299;SDS011;17110;52.602;12.998;2023-12-20T05:48:08;4.50;;;1.75;;
30299;SDS011;17110;52.602;12.998;2023-12-20T05:53:10;3.50;;;1.90;;
30299;SDS011;17110;52.602;12.998;2023-12-20T05:58:10;7.32;;;2.70;;
30299;SDS011;17110;52.602;12.998;2023-12-20T06:03:11;6.68;;;2.30;;
30299;SDS011;17110;52.602;12.998;2023-12-20T06:08:13;5.68;;;3.17;;
30299;SDS011;17110;52.602;12.998;2023-12-20T06:13:14;3.80;;;2.38;;
30299;SDS011;17110;52.602;12.998;2023-12-20T06:18:15;5.70;;;2.03;;
30299;SDS011;17110;52.602;12.998;2023-12-20T06:23:17;4.82;;;2.30;;
30299;SDS011;17110;52.602;12.998;2023-12-20T06:28:17;4.18;;;2.35;;
30299;SDS011;17110;52.602;12.998;2023-12-20T06:33:18;5.80;;;1.90;;
30299;SDS011;17110;52.602;12.998;2023-12-20T06:38:20;6.10;;;1.95;;
30299;SDS011;17110;52.602;12.998;2023-12-20T06:43:20;4.68;;;2.10;;
30299;SDS011;17110;52.602;12.998;2023-12-20T06:48:21;3.78;;;2.25;;
30299;SDS011;17110;52.602;12.998;2023-12-20T06:53:23;5.22;;;2.42;;
30299;SDS011;17110;52.602;12.998;2023-12-20T06:58:24;6.15;;;2.20;;
30299;SDS011;17110;52.602;12.998;2023-12-20T07:03:24;8.25;;;2.60;;
30299;SDS011;17110;52.602;12.998;2023-12-20T07:08:26;6.32;;;2.58;;
30299;SDS011;17110;52.602;12.998;2023-12-20T07:13:27;8.07;;;3.03;;
30299;SDS011;17110;52.602;12.998;2023-12-20T07:18:27;9.23;;;2.80;;
30299;SDS011;17110;52.602;12.998;2023-12-20T07:23:29;4.43;;;2.35;;
30299;SDS011;17110;52.602;12.998;2023-12-20T07:28:30;5.32;;;1.95;;
30299;SDS011;17110;52.602;12.998;2023-12-20T07:33:31;5.18;;;1.85;;
30299;SDS011;17110;52.602;12.998;2023-12-20T07:38:33;6.57;;;2.90;;
30299;SDS011;17110;52.602;12.998;2023-12-20T07:43:33;8.30;;;2.28;;
30299;SDS011;17110;52.602;12.998;2023-12-20T07:48:34;4.95;;;2.45;;
30299;SDS011;17110;52.602;12.998;2023-12-20T07:53:36;3.90;;;2.05;;
30299;SDS011;17110;52.602;12.998;2023-12-20T07:58:37;6.60;;;2.10;;
30299;SDS011;17110;52.602;12.998;2023-12-20T08:03:38;10.68;;;2.88;;
30299;SDS011;17110;52.602;12.998;2023-12-20T08:08:40;6.25;;;2.47;;
30299;SDS011;17110;52.602;12.998;2023-12-20T08:13:41;8.07;;;2.63;;
30299;SDS011;17110;52.602;12.998;2023-12-20T08:18:41;6.68;;;2.00;;
30299;SDS011;17110;52.602;12.998;2023-12-20T08:23:43;8.60;;;2.50;;
30299;SDS011;17110;52.602;12.998;2023-12-20T08:28:44;5.47;;;2.38;;
30299;SDS011;17110;52.602;12.998;2023-12-20T08:33:45;6.05;;;2.50;;
30299;SDS011;17110;52.602;12.998;2023-12-20T08:38:48;6.53;;;2.10;;
30299;SDS011;17110;52.602;12.998;2023-12-20T08:43:48;6.10;;;2.03;;
30299;SDS011;17110;52.602;12.998;2023-12-20T08:48:49;6.70;;;2.83;;
30299;SDS011;17110;52.602;12.998;2023-12-20T08:53:51;6.85;;;2.60;;
30299;SDS011;17110;52.602;12.998;2023-12-20T08:58:52;5.43;;;2.58;;
30299;SDS011;17110;52.602;12.998;2023-12-20T09:03:52;10.35;;;2.80;;
30299;SDS011;17110;52.602;12.998;2023-12-20T09:08:54;11.60;;;2.03;;
30299;SDS011;17110;52.602;12.998;2023-12-20T09:13:55;4.72;;;2.30;;
30299;SDS011;17110;52.602;12.998;2023-12-20T09:18:55;6.10;;;1.83;;
30299;SDS011;17110;52.602;12.998;2023-12-20T09:23:58;5.93;;;2.30;;
30299;SDS011;17110;52.602;12.998;2023-12-20T09:28:58;4.13;;;2.42;;
30299;SDS011;17110;52.602;12.998;2023-12-20T09:33:59;5.20;;;2.15;;
30299;SDS011;17110;52.602;12.998;2023-12-20T09:39:01;4.80;;;2.13;;
30299;SDS011;17110;52.602;12.998;2023-12-20T09:44:02;11.13;;;2.67;;
30299;SDS011;17110;52.602;12.998;2023-12-20T09:49:03;14.50;;;2.67;;
30299;SDS011;17110;52.602;12.998;2023-12-20T09:54:06;4.82;;;2.25;;
30299;SDS011;17110;52.602;12.998;2023-12-20T09:59:07;6.30;;;2.38;;
30299;SDS011;17110;52.602;12.998;2023-12-20T10:04:08;6.00;;;3.08;;
30299;SDS011;17110;52.602;12.998;2023-12-20T10:09:11;6.03;;;2.65;;
30299;SDS011;17110;52.602;12.998;2023-12-20T10:14:12;9.15;;;2.90;;
30299;SDS011;17110;52.602;12.998;2023-12-20T10:19:15;7.07;;;2.65;;
30299;SDS011;17110;52.602;12.998;2023-12-20T10:24:18;10.18;;;2.92;;
30299;SDS011;17110;52.602;12.998;2023-12-20T10:29:18;6.30;;;2.75;;
30299;SDS011;17110;52.602;12.998;2023-12-20T10:34:19;9.45;;;2.78;;
30299;SDS011;17110;52.602;12.998;2023-12-20T10:39:21;9.70;;;3.05;;
30299;SDS011;17110;52.602;12.998;2023-12-20T10:44:22;7.13;;;2.75;;
30299;SDS011;17110;52.602;12.998;2023-12-20T10:49:24;10.82;;;2.25;;
30299;SDS011;17110;52.602;12.998;2023-12-20T10:54:27;18.80;;;2.97;;
30299;SDS011;17110;52.602;12.998;2023-12-20T10:59:27;9.77;;;3.30;;
30299;SDS011;17110;52.602;12.998;2023-12-20T11:04:36;4.57;;;2.92;;
30299;SDS011;17110;52.602;12.998;2023-12-20T11:09:43;9.57;;;3.00;;
30299;SDS011;17110;52.602;12.998;2023-12-20T11:14:49;7.20;;;2.92;;
30299;SDS011;17110;52.602;12.998;2023-12-20T11:20:07;5.50;;;2.22;;
30299;SDS011;17110;52.602;12.998;2023-12-20T11:25:10;8.85;;;2.28;;
30299;SDS011;17110;52.602;12.998;2023-12-20T11:30:12;7.15;;;3.13;;
30299;SDS011;17110;52.602;12.998;2023-12-20T11:35:18;5.72;;;2.50;;
30299;SDS011;17110;52.602;12.998;2023-12-20T11:40:20;6.72;;;2.75;;
30299;SDS011;17110;52.602;12.998;2023-12-20T11:45:24;10.50;;;3.35;;
30299;SDS011;17110;52.602;12.998;2023-12-20T11:50:25;9.75;;;2.30;;
30299;SDS011;17110;52.602;12.998;2023-12-20T11:55:27;7.13;;;2.22;;
30299;SDS011;17110;52.602;12.998;2023-12-20T12:00:28;7.10;;;2.88;;
30299;SDS011;17110;52.602;12.998;2023-12-20T12:05:30;7.88;;;2.35;;
30299;SDS011;17110;52.602;12.998;2023-12-20T12:10:33;5.32;;;2.05;;
30299;SDS011;17110;52.602;12.998;2023-12-20T12:15:34;8.77;;;2.42;;
30299;SDS011;17110;52.602;12.998;2023-12-20T12:20:35;7.53;;;2.45;;
30299;SDS011;17110;52.602;12.998;2023-12-20T12:25:37;10.65;;;3.15;;
30299;SDS011;17110;52.602;12.998;2023-12-20T12:30:37;12.20;;;3.05;;
30299;SDS011;17110;52.602;12.998;2023-12-20T12:35:38;4.95;;;2.40;;
30299;SDS011;17110;52.602;12.998;2023-12-20T12:40:41;2.60;;;1.98;;
30299;SDS011;17110;52.602;12.998;2023-12-20T12:45:43;11.30;;;2.85;;
30299;SDS011;17110;52.602;12.998;2023-12-20T12:50:45;8.43;;;2.92;;
30299;SDS011;17110;52.602;12.998;2023-12-20T12:55:47;5.05;;;2.45;;
30299;SDS011;17110;52.602;12.998;2023-12-20T13:00:47;5.30;;;1.95;;
30299;SDS011;17110;52.602;12.998;2023-12-20T13:05:48;2.25;;;1.08;;
30299;SDS011;17110;52.602;12.998;2023-12-20T13:10:50;0.88;;;0.85;;
30299;SDS011;17110;52.602;12.998;2023-12-20T13:15:51;1.00;;;0.90;;
30299;SDS011;17110;52.602;12.998;2023-12-20T13:20:52;1.92;;;0.85;;
30299;SDS011;17110;52.602;12.998;2023-12-20T13:25:54;1.05;;;0.90;;
30299;SDS011;17110;52.602;12.998;2023-12-20T13:30:54;5.35;;;1.30;;
30299;SDS011;17110;52.602;12.998;2023-12-20T13:35:55;1.52;;;0.65;;
30299;SDS011;17110;52.602;12.998;2023-12-20T13:40:57;4.80;;;1.35;;
30299;SDS011;17110;52.602;12.998;2023-12-20T13:45:58;2.03;;;0.60;;
30299;SDS011;17110;52.602;12.998;2023-12-20T13:50:58;1.38;;;0.80;;
30299;SDS011;17110;52.602;12.998;2023-12-20T13:56:00;1.13;;;0.77;;
30299;SDS011;17110;52.602;12.998;2023-12-20T14:01:01;0.68;;;0.50;;
30299;SDS011;17110;52.602;12.998;2023-12-20T14:06:02;0.68;;;0.57;;
30299;SDS011;17110;52.602;12.998;2023-12-20T14:11:04;0.98;;;0.98;;
30299;SDS011;17110;52.602;12.998;2023-12-20T14:16:05;0.80;;;0.80;;
30299;SDS011;17110;52.602;12.998;2023-12-20T14:21:05;1.38;;;0.80;;
30299;SDS011;17110;52.602;12.998;2023-12-20T14:26:07;0.50;;;0.50;;
30299;SDS011;17110;52.602;12.998;2023-12-20T14:31:08;0.85;;;0.82;;
30299;SDS011;17110;52.602;12.998;2023-12-20T14:36:09;0.77;;;0.70;;
30299;SDS011;17110;52.602;12.998;2023-12-20T14:41:11;3.78;;;1.20;;
30299;SDS011;17110;52.602;12.998;2023-12-20T14:46:11;2.25;;;1.63;;
30299;SDS011;17110;52.602;12.998;2023-12-20T14:51:12;2.65;;;0.80;;
30299;SDS011;17110;52.602;12.998;2023-12-20T14:56:14;0.80;;;0.80;;
30299;SDS011;17110;52.602;12.998;2023-12-20T15:01:15;1.48;;;0.73;;
30299;SDS011;17110;52.602;12.998;2023-12-20T15:06:15;4.47;;;1.15;;
30299;SDS011;17110;52.602;12.998;2023-12-20T15:11:17;4.65;;;1.40;;
30299;SDS011;17110;52.602;12.998;2023-12-20T15:16:18;1.17;;;1.08;;
30299;SDS011;17110;52.602;12.998;2023-12-20T15:21:19;1.90;;;1.30;;
30299;SDS011;17110;52.602;12.998;2023-12-20T15:26:21;2.38;;;1.30;;
30299;SDS011;17110;52.602;12.998;2023-12-20T15:31:21;1.38;;;0.82;;
30299;SDS011;17110;52.602;12.998;2023-12-20T15:36:22;3.53;;;1.30;;
30299;SDS011;17110;52.602;12.998;2023-12-20T15:41:24;3.80;;;1.02;;
30299;SDS011;17110;52.602;12.998;2023-12-20T15:46:25;1.92;;;0.93;;
30299;SDS011;17110;52.602;12.998;2023-12-20T15:51:25;1.67;;;1.40;;
30299;SDS011;17110;52.602;12.998;2023-12-20T15:56:27;2.25;;;1.15;;
30299;SDS011;17110;52.602;12.998;2023-12-20T16:01:28;1.20;;;1.10;;
30299;SDS011;17110;52.602;12.998;2023-12-20T16:06:29;3.92;;;1.50;;
30299;SDS011;17110;52.602;12.998;2023-12-20T16:11:31;6.65;;;1.60;;
30299;SDS011;17110;52.602;12.998;2023-12-20T16:16:32;2.25;;;1.58;;
30299;SDS011;17110;52.602;12.998;2023-12-20T16:21:32;1.58;;;1.23;;
30299;SDS011;17110;52.602;12.998;2023-12-20T16:26:34;4.35;;;2.33;;
30299;SDS011;17110;52.602;12.998;2023-12-20T16:31:35;2.45;;;1.30;;
30299;SDS011;17110;52.602;12.998;2023-12-20T16:36:48;5.20;;;1.30;;
30299;SDS011;17110;52.602;12.998;2023-12-20T16:41:51;7.35;;;3.60;;
30299;SDS011;17110;52.602;12.998;2023-12-20T16:46:52;6.32;;;2.95;;
30299;SDS011;17110;52.602;12.998;2023-12-20T16:51:52;4.65;;;2.20;;
30299;SDS011;17110;52.602;12.998;2023-12-20T16:56:54;2.40;;;1.90;;
30299;SDS011;17110;52.602;12.998;2023-12-20T17:01:55;9.75;;;2.92;;
30299;SDS011;17110;52.602;12.998;2023-12-20T17:06:55;3.35;;;2.53;;
30299;SDS011;17110;52.602;12.998;2023-12-20T17:11:57;4.55;;;2.40;;
30299;SDS011;17110;52.602;12.998;2023-12-20T17:16:58;8.13;;;2.63;;
30299;SDS011;17110;52.602;12.998;2023-12-20T17:21:59;7.22;;;2.55;;
30299;SDS011;17110;52.602;12.998;2023-12-20T17:27:01;5.57;;;1.95;;
30299;SDS011;17110;52.602;12.998;2023-12-20T17:32:01;5.07;;;2.17;;
30299;SDS011;17110;52.602;12.998;2023-12-20T17:37:02;5.78;;;2.97;;
30299;SDS011;17110;52.602;12.998;2023-12-20T17:42:04;5.65;;;1.75;;
30299;SDS011;17110;52.602;12.998;2023-12-20T17:47:05;6.47;;;2.35;;
30299;SDS011;17110;52.602;12.998;2023-12-20T17:52:06;5.47;;;1.80;;
30299;SDS011;17110;52.602;12.998;2023-12-20T17:57:08;3.60;;;1.98;;
30299;SDS011;17110;52.602;12.998;2023-12-20T18:02:08;15.70;;;2.13;;
30299;SDS011;17110;52.602;12.998;2023-12-20T18:07:09;4.13;;;1.85;;
30299;SDS011;17110;52.602;12.998;2023-12-20T18:12:12;7.78;;;2.22;;
30299;SDS011;17110;52.602;12.998;2023-12-20T18:17:12;6.55;;;2.45;;
30299;SDS011;17110;52.602;12.998;2023-12-20T18:22:13;4.90;;;2.30;;
30299;SDS011;17110;52.602;12.998;2023-12-20T18:27:15;3.45;;;1.98;;
30299;SDS011;17110;52.602;12.998;2023-12-20T18:32:16;5.85;;;2.13;;
30299;SDS011;17110;52.602;12.998;2023-12-20T18:37:16;8.27;;;2.67;;
30299;SDS011;17110;52.602;12.998;2023-12-20T18:42:18;8.95;;;2.97;;
30299;SDS011;17110;52.602;12.998;2023-12-20T18:47:20;4.70;;;2.10;;
30299;SDS011;17110;52.602;12.998;2023-12-20T18:52:20;7.93;;;2.60;;
30299;SDS011;17110;52.602;12.998;2023-12-20T18:57:22;6.88;;;3.25;;
30299;SDS011;17110;52.602;12.998;2023-12-20T19:02:24;4.22;;;2.33;;
30299;SDS011;17110;52.602;12.998;2023-12-20T19:07:25;9.27;;;2.58;;
30299;SDS011;17110;52.602;12.998;2023-12-20T19:12:26;12.20;;;3.15;;
30299;SDS011;17110;52.602;12.998;2023-12-20T19:17:27;6.13;;;1.67;;
30299;SDS011;17110;52.602;12.998;2023-12-20T19:22:28;4.20;;;1.42;;
30299;SDS011;17110;52.602;12.998;2023-12-20T19:27:30;4.18;;;2.17;;
30299;SDS011;17110;52.602;12.998;2023-12-20T19:32:31;3.80;;;1.85;;
30299;SDS011;17110;52.602;12.998;2023-12-20T19:37:31;7.57;;;1.95;;
30299;SDS011;17110;52.602;12.998;2023-12-20T19:42:33;13.20;;;2.15;;
30299;SDS011;17110;52.602;12.998;2023-12-20T19:47:34;10.20;;;1.75;;
30299;SDS011;17110;52.602;12.998;2023-12-20T19:52:34;3.20;;;1.75;;
30299;SDS011;17110;52.602;12.998;2023-12-20T19:57:37;5.57;;;1.63;;
30299;SDS011;17110;52.602;12.998;2023-12-20T20:02:37;6.30;;;1.75;;
30299;SDS011;17110;52.602;12.998;2023-12-20T20:07:38;5.18;;;1.67;;
30299;SDS011;17110;52.602;12.998;2023-12-20T20:12:40;7.13;;;1.98;;
30299;SDS011;17110;52.602;12.998;2023-12-20T20:17:41;3.95;;;1.83;;
30299;SDS011;17110;52.602;12.998;2023-12-20T20:22:41;5.00;;;1.67;;
30299;SDS011;17110;52.602;12.998;2023-12-20T20:27:43;3.72;;;1.83;;
30299;SDS011;17110;52.602;12.998;2023-12-20T20:32:44;3.45;;;1.70;;
30299;SDS011;17110;52.602;12.998;2023-12-20T20:37:44;4.32;;;1.67;;
30299;SDS011;17110;52.602;12.998;2023-12-20T20:42:46;6.22;;;2.00;;
30299;SDS011;17110;52.602;12.998;2023-12-20T20:47:47;5.90;;;1.88;;
30299;SDS011;17110;52.602;12.998;2023-12-20T20:52:48;7.05;;;2.63;;
30299;SDS011;17110;52.602;12.998;2023-12-20T20:57:50;2.33;;;1.45;;
30299;SDS011;17110;52.602;12.998;2023-12-20T21:02:50;5.88;;;1.95;;
30299;SDS011;17110;52.602;12.998;2023-12-20T21:07:51;7.65;;;2.00;;
30299;SDS011;17110;52.602;12.998;2023-12-20T21:12:53;3.58;;;1.85;;
30299;SDS011;17110;52.602;12.998;2023-12-20T21:17:53;2.75;;;1.70;;
30299;SDS011;17110;52.602;12.998;2023-12-20T21:22:54;3.92;;;2.45;;
30299;SDS011;17110;52.602;12.998;2023-12-20T21:27:56;2.05;;;1.45;;
30299;SDS011;17110;52.602;12.998;2023-12-20T21:32:57;1.33;;;1.20;;
30299;SDS011;17110;52.602;12.998;2023-12-20T21:37:57;2.30;;;1.20;;
30299;SDS011;17110;52.602;12.998;2023-12-20T21:42:59;1.85;;;1.33;;
30299;SDS011;17110;52.602;12.998;2023-12-20T21:48:01;2.00;;;1.30;;
30299;SDS011;17110;52.602;12.998;2023-12-20T21:53:03;3.50;;;1.88;;
30299;SDS011;17110;52.602;12.998;2023-12-20T21:58:05;2.50;;;1.58;;
30299;SDS011;17110;52.602;12.998;2023-12-20T22:03:05;3.47;;;1.40;;
30299;SDS011;17110;52.602;12.998;2023-12-20T22:08:06;3.40;;;1.63;;
30299;SDS011;17110;52.602;12.998;2023-12-20T22:13:11;8.10;;;1.30;;
30299;SDS011;17110;52.602;12.998;2023-12-20T22:18:12;1.92;;;1.17;;
30299;SDS011;17110;52.602;12.998;2023-12-20T22:23:13;5.90;;;1.35;;
30299;SDS011;17110;52.602;12.998;2023-12-20T22:28:15;5.60;;;1.05;;
30299;SDS011;17110;52.602;12.998;2023-12-20T22:33:16;3.20;;;1.52;;
30299;SDS011;17110;52.602;12.998;2023-12-20T22:38:17;3.00;;;1.50;;
30299;SDS011;17110;52.602;12.998;2023-12-20T22:43:19;2.08;;;1.02;;
30299;SDS011;17110;52.602;12.998;2023-12-20T22:48:20;7.35;;;1.70;;
30299;SDS011;17110;52.602;12.998;2023-12-20T22:53:20;3.17;;;1.45;;
30299;SDS011;17110;52.602;12.998;2023-12-20T22:58:22;4.50;;;1.48;;
30299;SDS011;17110;52.602;12.998;2023-12-20T23:03:23;1.98;;;1.67;;
30299;SDS011;17110;52.602;12.998;2023-12-20T23:08:24;4.70;;;1.73;;
30299;SDS011;17110;52.602;12.998;2023-12-20T23:13:26;4.88;;;1.92;;
30299;SDS011;17110;52.602;12.998;2023-12-20T23:18:26;1.40;;;1.30;;
30299;SDS011;17110;52.602;12.998;2023-12-20T23:23:27;7.72;;;2.30;;
30299;SDS011;17110;52.602;12.998;2023-12-20T23:28:29;2.03;;;1.80;;
30299;SDS011;17110;52.602;12.998;2023-12-20T23:33:29;2.53;;;1.98;;
30299;SDS011;17110;52.602;12.998;2023-12-20T23:38:30;2.70;;;2.15;;
30299;SDS011;17110;52.602;12.998;2023-12-20T23:43:32;6.75;;;2.28;;
30299;SDS011;17110;52.602;12.998;2023-12-20T23:48:33;2.20;;;1.58;;
30299;SDS011;17110;52.602;12.998;2023-12-20T23:53:33;3.40;;;2.67;;
30299;SDS011;17110;52.602;12.998;2023-12-20T23:58:35;3.45;;;2.35;;
